• °C
  • Pobieranie danych...
wx


SEKCJA WYDRUKÓW, pokaż »

METAR EPBY 241030Z 22007KT 9999 OVC003 02/01 Q1033=

METAR EPGD 241030Z 25009KT 9999 BKN004 02/02 Q1030 =

METAR EPKK 241030Z 00000KT CAVOK M02/M09 Q1035 =

METAR EPKT 241030Z 18005KT CAVOK M02/M07 Q1034 =

METAR EPLB 241030Z 20007KT CAVOK M06/M08 Q1036 =

METAR EPLL 241030Z 19004KT 140V280 8000 FEW028 00/M03 Q1034 =

METAR EPML 241030Z AUTO 19006KT 160V220 9000 NCD M04/M09 Q1037=

METAR EPMO 241030Z 18008KT 9999 SCT020 00/M05 Q1034 =

METAR EPPO 241030Z 22004KT 9999 OVC004 03/02 Q1034 =

METAR EPRA 241030Z 20006KT CAVOK M02/M05 Q1035=

METAR EPRZ 241030Z 08003KT 9000 SCT007 M07/M09 Q1036 =

METAR EPSC 241030Z 29007KT 9999 SCT004 OVC006 05/04 Q1033 =

METAR EPSY 241030Z 21007KT 9999 BKN010 OVC012 M00/M03 Q1032=

METAR EPWA 241030Z 19005KT CAVOK M02/M06 Q1035 NOSIG=

METAR EPWR 241030Z VRB01KT 7000 BKN003 01/01 Q1035 =

METAR EPZG 241030Z 19005KT 2500 BR BKN004 OVC009 03/03 Q1034 =



Serwisy IMGW-PIB